Time;durP1;ratioP1;P1;durP2;ratioP2;P2;SDS_P1;SDS_P2;PMS_P1;PMS_P2;Temp;Humidity;BMP_temperature;BMP_pressure;BME280_temperature;BME280_humidity;BME280_pressure;Samples;Min_cycle;Max_cycle;Signal;HPM_P1;HPM_P2
2022/10/07 00:00:49;;;;;;;7.82;3.47;;;;;;;12.91;nan;94978.81;4894771;29;20045;-62
2022/10/07 00:03:18;;;;;;;7.18;3.58;;;;;;;12.87;nan;94978.81;4895174;29;20106;-61
2022/10/07 00:05:45;;;;;;;11.32;4.00;;;;;;;12.76;nan;94978.91;4894857;29;20053;-60
2022/10/07 00:08:12;;;;;;;8.07;4.00;;;;;;;12.85;nan;94972.94;4894543;29;20508;-59
2022/10/07 00:10:41;;;;;;;13.03;7.23;;;;;;;12.86;nan;94977.28;4895268;29;20051;-59
2022/10/07 00:13:10;;;;;;;15.68;8.40;;;;;;;12.85;nan;94975.69;4894011;29;20668;-61
2022/10/07 00:15:38;;;;;;;10.95;4.85;;;;;;;12.71;nan;94965.56;4895247;29;20044;-59
2022/10/07 00:18:05;;;;;;;6.82;3.83;;;;;;;12.69;nan;94975.41;4883805;29;20036;-60
2022/10/07 00:20:40;;;;;;;10.15;4.03;;;;;;;12.53;nan;94973.16;4875843;29;20059;-58
2022/10/07 00:23:08;;;;;;;6.23;3.57;;;;;;;12.56;nan;94975.09;4867627;29;21622;-58
2022/10/07 00:25:38;;;;;;;7.20;3.53;;;;;;;12.50;nan;94972.00;4876344;29;20045;-62
2022/10/07 00:28:05;;;;;;;6.78;3.80;;;;;;;12.59;nan;94977.81;4875496;29;20490;-60
2022/10/07 00:30:32;;;;;;;7.28;3.72;;;;;;;12.46;nan;94975.97;4876162;29;20446;-62
2022/10/07 00:32:59;;;;;;;9.48;3.65;;;;;;;12.59;nan;94972.31;4875263;29;20053;-60
2022/10/07 00:35:25;;;;;;;6.70;3.30;;;;;;;12.63;nan;94968.75;4876088;29;20064;-62
2022/10/07 00:37:52;;;;;;;7.28;3.35;;;;;;;12.32;nan;94963.06;4875297;29;20056;-64
2022/10/07 00:40:19;;;;;;;5.75;3.50;;;;;;;12.48;nan;94962.56;4876031;29;20041;-60
2022/10/07 00:42:46;;;;;;;24.83;13.05;;;;;;;12.57;nan;94951.88;4874148;29;20041;-59
2022/10/07 00:45:15;;;;;;;8.43;4.40;;;;;;;12.55;nan;94952.28;4875547;29;20055;-59
2022/10/07 00:47:48;;;;;;;7.07;3.77;;;;;;;12.50;nan;94949.19;4874287;29;20673;-60
2022/10/07 00:50:26;;;;;;;6.80;3.53;;;;;;;12.41;nan;94943.34;4875522;29;20044;-59
2022/10/07 00:52:57;;;;;;;6.22;3.50;;;;;;;12.32;nan;94938.28;4875186;29;20053;-64
2022/10/07 00:55:28;;;;;;;6.07;3.40;;;;;;;12.21;nan;94954.81;4875826;29;20045;-61
2022/10/07 00:58:00;;;;;;;7.05;3.78;;;;;;;12.16;nan;94938.75;4874724;29;20123;-62
2022/10/07 01:00:27;;;;;;;7.03;3.90;;;;;;;12.03;nan;94938.41;4875645;29;20053;-62
2022/10/07 01:02:54;;;;;;;10.30;3.72;;;;;;;12.14;nan;94939.13;4875023;29;20049;-59
2022/10/07 01:05:21;;;;;;;6.75;3.50;;;;;;;12.16;nan;94933.25;4875611;29;20049;-59
2022/10/07 01:07:49;;;;;;;7.43;3.70;;;;;;;12.17;nan;94935.59;4874951;29;20049;-61
2022/10/07 01:10:20;;;;;;;5.95;3.88;;;;;;;12.09;nan;94928.56;4875103;29;20053;-59
2022/10/07 01:13:07;;;;;;;7.70;3.97;;;;;;;12.07;nan;94930.13;4858788;29;20048;-59
2022/10/07 01:16:12;;;;;;;7.85;3.92;;;;;;;11.98;nan;94925.84;4875521;29;20053;-59
2022/10/07 01:18:48;;;;;;;7.30;4.20;;;;;;;11.95;nan;94926.66;4889019;29;21661;-60
2022/10/07 01:21:18;;;;;;;8.95;4.07;;;;;;;11.89;nan;94924.72;4892897;29;20746;-61
2022/10/07 01:23:55;;;;;;;8.63;4.13;;;;;;;11.96;nan;94921.94;4893500;29;20056;-60
2022/10/07 01:26:50;;;;;;;18.10;9.70;;;;;;;11.97;nan;94918.00;4894053;29;20041;-59
2022/10/07 01:29:38;;;;;;;9.55;5.38;;;;;;;11.89;nan;94911.75;4892885;29;21779;-59
2022/10/07 01:32:10;;;;;;;9.60;4.45;;;;;;;11.94;nan;94905.81;4892224;29;20048;-61
2022/10/07 01:34:39;;;;;;;10.88;4.50;;;;;;;12.01;nan;94905.00;4893890;29;20390;-59
2022/10/07 01:37:10;;;;;;;6.90;4.47;;;;;;;12.06;nan;94907.34;4893135;29;20049;-59
2022/10/07 01:39:44;;;;;;;9.17;4.20;;;;;;;11.90;nan;94910.56;4893789;29;20041;-60
2022/10/07 01:42:11;;;;;;;6.78;4.00;;;;;;;11.93;nan;94906.22;4892841;29;20936;-59
2022/10/07 01:44:39;;;;;;;8.10;4.28;;;;;;;11.99;nan;94897.16;4893739;29;20048;-60
2022/10/07 01:47:06;;;;;;;8.48;4.00;;;;;;;11.84;nan;94894.84;4893019;29;20119;-61
2022/10/07 01:49:33;;;;;;;6.85;3.67;;;;;;;11.96;nan;94888.94;4893842;29;20056;-61
2022/10/07 01:52:29;;;;;;;6.57;4.13;;;;;;;11.98;nan;94890.09;4891818;29;20379;-59
2022/10/07 01:55:50;;;;;;;12.05;4.78;;;;;;;11.93;nan;94886.97;4893346;29;20040;-60
2022/10/07 01:58:36;;;;;;;8.98;4.18;;;;;;;12.09;nan;94881.00;4871406;29;20621;-59
2022/10/07 02:01:10;;;;;;;8.20;4.55;;;;;;;12.08;nan;94884.94;4892976;29;20040;-59
2022/10/07 02:04:05;;;;;;;7.43;4.10;;;;;;;11.98;nan;94881.84;4893749;29;20044;-60
2022/10/07 02:06:32;;;;;;;6.40;3.90;;;;;;;12.05;nan;94880.22;4892890;29;20795;-60
2022/10/07 02:09:01;;;;;;;8.10;4.38;;;;;;;12.13;nan;94876.25;4892482;29;20395;-59
2022/10/07 02:11:36;;;;;;;7.47;4.40;;;;;;;12.18;nan;94871.09;4893655;29;20052;-61
2022/10/07 02:14:22;;;;;;;11.27;4.28;;;;;;;12.25;nan;94862.03;4892975;29;20045;-58
2022/10/07 02:16:55;;;;;;;8.05;4.22;;;;;;;12.01;nan;94869.22;4892451;29;20445;-59
2022/10/07 02:19:31;;;;;;;8.83;4.37;;;;;;;12.05;nan;94864.50;4874702;29;20052;-60
2022/10/07 02:22:01;;;;;;;9.52;5.30;;;;;;;12.12;nan;94858.97;4874416;29;20052;-61
2022/10/07 02:24:31;;;;;;;11.52;5.82;;;;;;;12.17;nan;94860.50;4874684;29;20718;-61
2022/10/07 02:27:04;;;;;;;12.98;6.25;;;;;;;12.25;nan;94853.75;4874199;29;20049;-64
2022/10/07 02:29:34;;;;;;;10.52;5.00;;;;;;;12.19;nan;94850.69;4874926;29;20410;-58
2022/10/07 02:32:05;;;;;;;9.67;5.40;;;;;;;12.20;nan;94851.44;4873432;29;21747;-59
2022/10/07 02:34:35;;;;;;;13.23;5.65;;;;;;;12.27;nan;94843.13;4874950;29;20053;-60
2022/10/07 02:37:10;;;;;;;11.32;5.88;;;;;;;12.31;nan;94841.13;4873877;29;20061;-59
2022/10/07 02:39:37;;;;;;;9.93;5.70;;;;;;;12.37;nan;94842.31;4874693;29;20045;-59
2022/10/07 02:42:10;;;;;;;11.85;5.97;;;;;;;12.38;nan;94841.09;4874170;29;20049;-59
2022/10/07 02:44:49;;;;;;;11.00;5.90;;;;;;;12.47;nan;94842.59;4876825;29;20053;-60
2022/10/07 02:47:21;;;;;;;9.35;5.40;;;;;;;12.45;nan;94840.25;4876716;29;20698;-59
2022/10/07 02:49:54;;;;;;;12.30;6.10;;;;;;;12.55;nan;94844.88;4877456;29;20044;-60
2022/10/07 02:52:22;;;;;;;12.68;5.97;;;;;;;12.50;nan;94841.81;4877835;29;20049;-60
2022/10/07 02:54:59;;;;;;;11.50;5.80;;;;;;;12.54;nan;94835.06;4877423;29;20205;-60
2022/10/07 02:57:30;;;;;;;14.23;5.80;;;;;;;12.50;nan;94834.31;4877988;29;20045;-60
2022/10/07 02:59:59;;;;;;;12.32;5.72;;;;;;;12.46;nan;94843.81;4877193;29;20420;-59
2022/10/07 03:02:35;;;;;;;11.15;6.20;;;;;;;12.36;nan;94837.19;4877706;29;20055;-59
2022/10/07 03:05:02;;;;;;;13.90;6.68;;;;;;;12.48;nan;94835.94;4876780;29;20053;-64
2022/10/07 03:07:29;;;;;;;13.43;7.10;;;;;;;12.46;nan;94824.53;4877663;29;20055;-59
2022/10/07 03:09:55;;;;;;;14.03;6.97;;;;;;;12.38;nan;94832.06;4876852;29;20045;-61
2022/10/07 03:12:22;;;;;;;14.35;6.95;;;;;;;12.51;nan;94827.63;4876094;29;20065;-59
2022/10/07 03:14:49;;;;;;;14.00;6.68;;;;;;;12.52;nan;94822.91;4876948;29;20056;-59
2022/10/07 03:17:16;;;;;;;12.77;6.53;;;;;;;12.42;nan;94829.28;4880862;29;20068;-60
2022/10/07 03:19:43;;;;;;;15.32;7.13;;;;;;;12.49;nan;94826.47;4895567;29;20049;-62
2022/10/07 03:22:11;;;;;;;13.13;6.93;;;;;;;12.49;nan;94834.72;4894649;29;20044;-60
2022/10/07 03:24:37;;;;;;;13.00;6.68;;;;;;;12.61;nan;94830.69;4894997;29;20053;-59
2022/10/07 03:27:06;;;;;;;14.20;7.22;;;;;;;12.58;nan;94833.06;4895271;29;20071;-62
2022/10/07 03:29:34;;;;;;;15.48;7.30;;;;;;;12.59;nan;94831.88;4894703;29;20045;-61
2022/10/07 03:32:01;;;;;;;16.70;7.35;;;;;;;12.57;nan;94827.97;4895370;29;20070;-59
2022/10/07 03:34:29;;;;;;;17.13;7.57;;;;;;;12.57;nan;94828.75;4895819;29;20494;-59
2022/10/07 03:36:56;;;;;;;16.88;7.85;;;;;;;12.51;nan;94827.63;4895401;29;20494;-59
2022/10/07 03:39:23;;;;;;;19.77;7.93;;;;;;;12.43;nan;94828.88;4895212;29;20454;-59
2022/10/07 03:41:50;;;;;;;16.75;7.75;;;;;;;12.60;nan;94818.91;4895152;29;20048;-61
2022/10/07 03:44:18;;;;;;;17.73;8.02;;;;;;;12.52;nan;94820.16;4895245;29;20043;-62
2022/10/07 03:46:49;;;;;;;14.57;7.60;;;;;;;12.61;nan;94819.69;4895435;29;20051;-60
2022/10/07 03:49:17;;;;;;;17.55;8.05;;;;;;;12.63;nan;94822.81;4895224;29;20088;-59
2022/10/07 03:51:43;;;;;;;18.17;8.60;;;;;;;12.46;nan;94824.53;4895123;29;20070;-59
2022/10/07 03:54:10;;;;;;;15.63;7.82;;;;;;;12.66;nan;94820.03;4895315;29;20049;-61
2022/10/07 03:56:37;;;;;;;16.90;8.18;;;;;;;12.54;nan;94820.53;4894699;29;20099;-59
2022/10/07 03:59:04;;;;;;;21.20;9.07;;;;;;;12.55;nan;94822.09;4894756;29;20052;-64
2022/10/07 04:01:31;;;;;;;16.02;7.90;;;;;;;12.65;nan;94810.19;4895088;29;20467;-59
2022/10/07 04:04:00;;;;;;;18.50;8.63;;;;;;;12.51;nan;94813.06;4894728;29;20062;-60
2022/10/07 04:06:28;;;;;;;20.05;9.10;;;;;;;12.56;nan;94809.91;4894969;29;20048;-59
2022/10/07 04:08:55;;;;;;;20.40;9.25;;;;;;;12.45;nan;94809.97;4894441;29;20053;-59
2022/10/07 04:11:23;;;;;;;19.03;9.03;;;;;;;12.31;nan;94808.09;4894968;29;20037;-61
2022/10/07 04:13:50;;;;;;;18.65;9.20;;;;;;;12.36;nan;94806.91;4894532;29;20048;-60
2022/10/07 04:16:17;;;;;;;30.88;15.98;;;;;;;12.50;nan;94795.78;4894881;29;20040;-61
2022/10/07 04:18:46;;;;;;;19.50;9.90;;;;;;;12.55;nan;94797.31;4879357;29;20063;-60
2022/10/07 04:21:13;;;;;;;18.88;9.02;;;;;;;12.58;nan;94805.53;4875874;29;20041;-60
2022/10/07 04:23:41;;;;;;;19.13;9.10;;;;;;;12.61;nan;94798.44;4876333;29;20041;-59
2022/10/07 04:26:09;;;;;;;21.48;9.95;;;;;;;12.52;nan;94798.13;4874975;29;21784;-59
2022/10/07 04:28:37;;;;;;;18.80;9.30;;;;;;;12.54;nan;94793.78;4876061;29;20045;-59
2022/10/07 04:31:07;;;;;;;17.75;9.15;;;;;;;12.50;nan;94793.03;4875624;29;20063;-59
2022/10/07 04:33:38;;;;;;;21.05;9.05;;;;;;;12.54;nan;94791.03;4876114;29;20441;-59
2022/10/07 04:36:08;;;;;;;20.77;8.63;;;;;;;12.54;nan;94793.78;4875730;29;20047;-59
2022/10/07 04:38:35;;;;;;;21.33;8.90;;;;;;;12.61;nan;94792.91;4876114;29;20057;-59
2022/10/07 04:41:03;;;;;;;18.13;8.50;;;;;;;12.57;nan;94786.66;4875155;29;20049;-59
2022/10/07 04:43:32;;;;;;;17.63;8.50;;;;;;;12.50;nan;94787.53;4859100;29;20057;-59
2022/10/07 04:46:08;;;;;;;19.73;8.80;;;;;;;12.46;nan;94791.50;4875333;29;20264;-60
2022/10/07 04:48:35;;;;;;;25.13;9.50;;;;;;;12.43;nan;94787.56;4875921;29;20071;-61
2022/10/07 04:51:09;;;;;;;17.85;8.07;;;;;;;12.56;nan;94796.91;4875158;29;20061;-58
2022/10/07 04:53:37;;;;;;;19.67;9.02;;;;;;;12.29;nan;94785.72;4875521;29;20076;-61
2022/10/07 04:56:05;;;;;;;17.15;7.93;;;;;;;12.21;nan;94784.22;4875277;29;20044;-60
2022/10/07 04:58:32;;;;;;;15.63;8.45;;;;;;;12.25;nan;94782.22;4874694;29;20057;-61
2022/10/07 05:01:00;;;;;;;20.57;8.27;;;;;;;12.45;nan;94779.69;4873501;29;20045;-60
2022/10/07 05:03:29;;;;;;;18.50;8.98;;;;;;;12.59;nan;94778.78;4875807;29;20057;-59
2022/10/07 05:06:02;;;;;;;17.60;8.50;;;;;;;12.62;nan;94780.72;4875269;29;20051;-60
2022/10/07 05:08:32;;;;;;;17.75;9.00;;;;;;;12.52;nan;94770.59;4869188;29;20050;-59
2022/10/07 05:11:00;;;;;;;17.63;8.90;;;;;;;12.56;nan;94769.38;4857029;29;20509;-58
2022/10/07 05:13:27;;;;;;;19.93;9.23;;;;;;;12.39;nan;94773.06;4857167;29;20052;-60
2022/10/07 05:15:57;;;;;;;22.85;12.20;;;;;;;12.53;nan;94766.66;4856087;29;20076;-60
2022/10/07 05:18:25;;;;;;;18.15;10.13;;;;;;;12.61;nan;94764.63;4871021;29;20513;-59
2022/10/07 05:20:53;;;;;;;23.08;12.00;;;;;;;12.57;nan;94759.13;4874228;29;20053;-59
2022/10/07 05:23:21;;;;;;;18.98;9.80;;;;;;;12.36;nan;94758.13;4874785;29;20071;-59
2022/10/07 05:25:58;;;;;;;17.70;8.20;;;;;;;12.48;nan;94764.34;4859185;29;20049;-59
2022/10/07 05:28:25;;;;;;;18.42;9.00;;;;;;;12.41;nan;94756.91;4874839;29;20566;-61
2022/10/07 05:31:07;;;;;;;18.58;8.95;;;;;;;12.45;nan;94754.91;4858099;29;20045;-62
2022/10/07 05:33:35;;;;;;;17.98;8.25;;;;;;;12.31;nan;94766.03;4858713;29;20059;-58
2022/10/07 05:36:03;;;;;;;18.48;8.73;;;;;;;12.40;nan;94763.63;4874504;29;20053;-58
2022/10/07 05:38:30;;;;;;;19.87;8.83;;;;;;;12.41;nan;94764.41;4874465;29;20057;-59
2022/10/07 05:40:59;;;;;;;19.20;8.50;;;;;;;12.46;nan;94763.97;4874323;29;20444;-61
2022/10/07 05:43:27;;;;;;;18.42;9.10;;;;;;;12.49;nan;94761.16;4874817;29;20049;-60
2022/10/07 05:46:05;;;;;;;18.73;8.27;;;;;;;12.27;nan;94755.06;4874498;29;20061;-61
2022/10/07 05:48:34;;;;;;;16.48;8.02;;;;;;;12.34;nan;94757.00;4874648;29;20041;-60
2022/10/07 05:51:07;;;;;;;17.50;8.13;;;;;;;12.28;nan;94756.63;4874666;29;20057;-60
2022/10/07 05:53:34;;;;;;;19.33;10.10;;;;;;;12.22;nan;94766.53;4874965;29;20045;-59
2022/10/07 05:56:05;;;;;;;16.55;8.73;;;;;;;12.08;nan;94764.66;4874526;29;20049;-59
2022/10/07 05:58:34;;;;;;;18.33;9.15;;;;;;;12.07;nan;94760.31;4874812;29;20053;-60
2022/10/07 06:01:05;;;;;;;18.23;8.95;;;;;;;12.22;nan;94760.25;4873786;29;20053;-58
2022/10/07 06:03:38;;;;;;;18.23;8.67;;;;;;;12.39;nan;94757.34;4866152;29;20045;-59
2022/10/07 06:06:05;;;;;;;18.17;8.98;;;;;;;12.20;nan;94760.63;4865593;29;20053;-59
2022/10/07 06:08:32;;;;;;;26.17;13.00;;;;;;;11.98;nan;94758.03;4863763;29;20521;-58
2022/10/07 06:13:49;;;;;;;16.73;9.27;;;;;;;11.93;nan;94757.69;4874578;29;20059;-58
2022/10/07 06:16:17;;;;;;;18.50;8.73;;;;;;;12.18;nan;94758.28;4865249;29;20517;-59
2022/10/07 06:18:45;;;;;;;20.25;10.18;;;;;;;12.05;nan;94759.94;4864582;29;20059;-58
2022/10/07 06:21:12;;;;;;;20.10;9.88;;;;;;;12.11;nan;94754.81;4875588;29;20048;-63
2022/10/07 06:23:39;;;;;;;18.42;10.05;;;;;;;12.28;nan;94753.13;4859482;29;20049;-59
2022/10/07 06:26:09;;;;;;;18.70;10.25;;;;;;;12.20;nan;94757.88;4858788;29;20097;-60
2022/10/07 06:28:40;;;;;;;20.83;10.10;;;;;;;12.28;nan;94753.88;4843321;29;20491;-59
2022/10/07 06:31:10;;;;;;;19.33;10.13;;;;;;;12.22;nan;94752.75;4859467;29;20784;-59
2022/10/07 06:33:38;;;;;;;21.50;10.43;;;;;;;12.26;nan;94759.00;4859962;29;20058;-60
2022/10/07 06:36:09;;;;;;;22.27;10.07;;;;;;;12.34;nan;94760.53;4859609;29;20486;-59
2022/10/07 06:38:36;;;;;;;22.73;12.55;;;;;;;12.28;nan;94770.41;4859677;29;20065;-60
2022/10/07 06:41:04;;;;;;;20.87;10.93;;;;;;;12.15;nan;94764.63;4859357;29;20044;-62
2022/10/07 06:43:32;;;;;;;19.60;10.10;;;;;;;12.22;nan;94771.25;4859246;29;20050;-61
2022/10/07 06:46:01;;;;;;;18.42;10.27;;;;;;;12.08;nan;94763.88;4858993;29;20062;-63
2022/10/07 06:48:30;;;;;;;22.95;11.57;;;;;;;12.16;nan;94771.66;4859456;29;20050;-59
2022/10/07 06:50:58;;;;;;;24.83;11.05;;;;;;;12.08;nan;94769.38;4859326;29;20057;-63
2022/10/07 06:53:25;;;;;;;22.90;11.03;;;;;;;12.09;nan;94769.00;4859421;29;20053;-61
2022/10/07 06:55:58;;;;;;;22.88;12.70;;;;;;;11.92;nan;94778.13;4859201;29;20048;-61
2022/10/07 06:58:25;;;;;;;26.20;12.68;;;;;;;12.06;nan;94767.03;4859321;29;20049;-62
2022/10/07 07:00:53;;;;;;;25.13;12.60;;;;;;;12.12;nan;94765.41;4858743;29;20046;-62
2022/10/07 07:03:20;;;;;;;24.42;12.25;;;;;;;12.19;nan;94767.31;4859143;29;20114;-61
2022/10/07 07:05:47;;;;;;;21.77;11.87;;;;;;;11.93;nan;94766.75;4859191;29;20047;-62
2022/10/07 07:08:18;;;;;;;22.75;11.73;;;;;;;11.75;nan;94766.81;4858982;29;20056;-59
2022/10/07 07:10:46;;;;;;;22.38;12.27;;;;;;;11.68;nan;94763.31;4842834;29;20050;-60
2022/10/07 07:13:14;;;;;;;22.23;11.20;;;;;;;11.77;nan;94767.19;4859421;29;20517;-59
2022/10/07 07:15:41;;;;;;;20.27;10.95;;;;;;;11.60;nan;94760.59;4873489;29;20049;-60
2022/10/07 07:18:10;;;;;;;21.97;11.47;;;;;;;11.55;nan;94763.78;4879620;29;20870;-59
2022/10/07 07:20:37;;;;;;;23.35;11.13;;;;;;;11.43;nan;94761.50;4896108;29;20053;-59
2022/10/07 07:23:06;;;;;;;22.75;11.75;;;;;;;11.55;nan;94769.28;4895482;29;20051;-60
2022/10/07 07:25:38;;;;;;;24.88;13.05;;;;;;;11.66;nan;94762.94;4895621;29;20051;-59
2022/10/07 07:28:06;;;;;;;20.67;10.38;;;;;;;11.62;nan;94771.22;4879256;29;20044;-60
2022/10/07 07:30:35;;;;;;;18.97;9.60;;;;;;;11.50;nan;94769.69;4896275;29;20045;-59
2022/10/07 07:33:04;;;;;;;20.42;9.93;;;;;;;11.39;nan;94771.72;4895819;29;20418;-60
2022/10/07 07:35:34;;;;;;;19.02;9.70;;;;;;;11.45;nan;94774.81;4896034;29;20051;-60
2022/10/07 07:38:01;;;;;;;21.85;10.65;;;;;;;11.60;nan;94770.81;4895607;29;20061;-60
2022/10/07 07:40:28;;;;;;;22.58;10.68;;;;;;;11.75;nan;94764.06;4895979;29;20056;-63
2022/10/07 07:42:55;;;;;;;25.83;11.37;;;;;;;11.90;nan;94758.50;4894670;29;20513;-59
2022/10/07 07:45:23;;;;;;;21.38;11.02;;;;;;;11.98;nan;94768.28;4895986;29;20036;-59
2022/10/07 07:47:50;;;;;;;23.95;10.75;;;;;;;12.02;nan;94771.00;4895266;29;20050;-59
2022/10/07 07:50:19;;;;;;;17.27;8.70;;;;;;;11.82;nan;94765.97;4895576;29;20037;-59
2022/10/07 07:52:46;;;;;;;17.98;8.73;;;;;;;11.65;nan;94762.16;4895530;29;20437;-59
2022/10/07 07:55:13;;;;;;;24.37;10.50;;;;;;;11.80;nan;94763.63;4894616;29;20049;-59
2022/10/07 07:57:41;;;;;;;17.63;8.40;;;;;;;11.98;nan;94766.28;4895612;29;20115;-60
2022/10/07 08:00:10;;;;;;;17.63;9.13;;;;;;;12.10;nan;94767.00;4894760;29;20206;-60
2022/10/07 08:02:37;;;;;;;17.67;8.43;;;;;;;12.20;nan;94763.38;4895450;29;20052;-59
2022/10/07 08:05:05;;;;;;;17.45;8.70;;;;;;;11.90;nan;94766.75;4895359;29;20052;-60
2022/10/07 08:07:34;;;;;;;18.03;8.70;;;;;;;11.91;nan;94766.34;4895188;29;20063;-61
2022/10/07 08:10:01;;;;;;;19.15;8.65;;;;;;;11.83;nan;94766.75;4894714;29;20049;-60
2022/10/07 08:12:27;;;;;;;19.80;9.27;;;;;;;11.94;nan;94768.28;4895347;29;20040;-60
2022/10/07 08:14:54;;;;;;;17.20;8.60;;;;;;;12.06;nan;94769.00;4894540;29;20052;-61
2022/10/07 08:17:21;;;;;;;18.42;8.68;;;;;;;11.92;nan;94767.91;4890730;29;20037;-59
2022/10/07 08:19:48;;;;;;;18.97;8.90;;;;;;;11.83;nan;94766.75;4876006;29;20045;-59
2022/10/07 08:22:17;;;;;;;17.73;8.80;;;;;;;11.69;nan;94767.63;4876658;29;20045;-59
2022/10/07 08:24:45;;;;;;;19.45;9.40;;;;;;;11.82;nan;94762.47;4876005;29;20057;-62
2022/10/07 08:27:12;;;;;;;19.63;9.10;;;;;;;11.86;nan;94755.75;4876642;29;20053;-60
2022/10/07 08:29:39;;;;;;;28.55;13.68;;;;;;;11.89;nan;94759.69;4876257;29;20053;-61
2022/10/07 08:32:06;;;;;;;39.33;16.60;;;;;;;11.99;nan;94765.13;4875098;29;20051;-60
2022/10/07 08:34:33;;;;;;;47.03;21.02;;;;;;;12.16;nan;94757.13;4876293;29;20056;-59
2022/10/07 08:37:00;;;;;;;26.50;11.60;;;;;;;12.09;nan;94757.19;4875080;29;20057;-59
2022/10/07 08:39:28;;;;;;;26.77;12.95;;;;;;;12.30;nan;94750.75;4876144;29;20513;-59
2022/10/07 08:42:05;;;;;;;25.55;12.80;;;;;;;12.45;nan;94754.13;4875224;29;20119;-59
2022/10/07 08:44:37;;;;;;;21.73;9.60;;;;;;;12.28;nan;94755.88;4875767;29;20059;-62
2022/10/07 08:47:37;;;;;;;22.77;10.27;;;;;;;12.01;nan;94748.19;4875905;29;20048;-59
2022/10/07 08:50:06;;;;;;;21.20;10.07;;;;;;;11.99;nan;94745.88;4875818;29;20051;-63
2022/10/07 08:52:36;;;;;;;24.25;11.18;;;;;;;12.10;nan;94751.28;4875798;29;20059;-60
2022/10/07 08:55:15;;;;;;;22.77;11.00;;;;;;;12.38;nan;94743.97;4875765;29;20049;-63
2022/10/07 08:58:24;;;;;;;20.53;9.93;;;;;;;12.25;nan;94737.41;4875391;29;20040;-59
2022/10/07 09:01:14;;;;;;;20.88;10.23;;;;;;;12.03;nan;94742.28;4868074;29;20051;-60
2022/10/07 09:03:50;;;;;;;25.05;11.63;;;;;;;11.95;nan;94745.13;4875850;29;20560;-61
2022/10/07 09:06:28;;;;;;;21.23;10.02;;;;;;;12.25;nan;94737.41;4867716;29;20789;-60
2022/10/07 09:09:04;;;;;;;20.92;9.82;;;;;;;12.21;nan;94731.91;4874727;29;20394;-61
2022/10/07 09:11:34;;;;;;;20.00;10.03;;;;;;;12.44;nan;94730.56;4875028;29;20053;-60
2022/10/07 09:14:21;;;;;;;19.80;9.20;;;;;;;12.46;nan;94726.22;4874775;29;20439;-60
2022/10/07 09:16:50;;;;;;;18.00;9.45;;;;;;;12.38;nan;94736.50;4875065;29;20049;-60
2022/10/07 09:19:27;;;;;;;16.58;8.27;;;;;;;12.42;nan;94722.72;4893684;29;20054;-60
2022/10/07 09:21:59;;;;;;;16.98;9.00;;;;;;;12.55;nan;94720.22;4892746;29;20047;-61
2022/10/07 09:24:27;;;;;;;17.27;8.83;;;;;;;12.73;nan;94728.28;4893445;29;20058;-60
2022/10/07 09:26:58;;;;;;;18.05;9.35;;;;;;;12.72;nan;94721.25;4891844;29;20092;-60
2022/10/07 09:29:27;;;;;;;19.45;9.10;;;;;;;12.88;nan;94721.44;4893111;29;20144;-60
2022/10/07 09:31:54;;;;;;;17.23;9.10;;;;;;;12.73;nan;94723.56;4891768;29;20078;-59
2022/10/07 09:34:24;;;;;;;16.88;8.75;;;;;;;12.97;nan;94715.44;4893447;29;20075;-60
2022/10/07 09:37:19;;;;;;;15.47;8.70;;;;;;;13.24;nan;94714.72;4892962;29;20053;-59
2022/10/07 09:39:49;;;;;;;15.85;8.18;;;;;;;13.31;nan;94718.19;4892658;29;20059;-59
2022/10/07 09:42:22;;;;;;;17.67;9.18;;;;;;;13.10;nan;94712.91;4893347;29;20047;-59
2022/10/07 09:44:59;;;;;;;17.30;8.85;;;;;;;13.45;nan;94710.94;4893011;29;20053;-59
2022/10/07 09:47:34;;;;;;;15.32;8.70;;;;;;;13.57;nan;94708.41;4893332;29;20053;-60
2022/10/07 09:50:02;;;;;;;17.10;8.70;;;;;;;13.42;nan;94707.03;4893071;29;20052;-59
2022/10/07 09:52:30;;;;;;;18.92;9.45;;;;;;;13.66;nan;94704.34;4892908;29;20049;-59
2022/10/07 09:55:39;;;;;;;17.42;9.45;;;;;;;13.59;nan;94708.00;4893934;29;20074;-61
2022/10/07 09:58:24;;;;;;;19.30;9.52;;;;;;;13.57;nan;94700.13;4875039;29;20508;-62
2022/10/07 10:00:53;;;;;;;16.55;9.20;;;;;;;13.50;nan;94708.50;4875198;29;20089;-60
2022/10/07 10:03:28;;;;;;;18.80;9.17;;;;;;;13.57;nan;94707.63;4888785;29;20051;-60
2022/10/07 10:06:01;;;;;;;17.88;9.32;;;;;;;13.67;nan;94703.94;4895697;29;20057;-60
2022/10/07 10:08:54;;;;;;;17.23;8.80;;;;;;;13.93;nan;94694.06;4857515;29;1094227;-64
2022/10/07 10:11:27;;;;;;;18.40;8.93;;;;;;;14.06;nan;94696.25;4896567;29;22153;-60
2022/10/07 10:13:54;;;;;;;18.52;9.55;;;;;;;13.99;nan;94691.63;4896742;29;20060;-63
2022/10/07 10:16:23;;;;;;;16.67;9.45;;;;;;;13.73;nan;94685.72;4897523;29;20047;-62
2022/10/07 10:18:57;;;;;;;15.27;9.60;;;;;;;13.65;nan;94683.47;4880549;29;20056;-61
2022/10/07 10:21:42;;;;;;;17.67;9.23;;;;;;;14.10;nan;94678.41;4878857;29;20045;-60
2022/10/07 10:24:13;;;;;;;16.63;9.63;;;;;;;14.38;nan;94688.19;4861231;29;20480;-61
2022/10/07 10:26:58;;;;;;;16.85;9.73;;;;;;;14.34;nan;94676.44;4861926;29;20495;-60
2022/10/07 10:30:01;;;;;;;19.50;10.00;;;;;;;14.14;nan;94670.09;4877970;29;20542;-60
2022/10/07 10:33:08;;;;;;;17.30;9.43;;;;;;;14.04;nan;94673.81;4877437;29;20896;-60
2022/10/07 10:36:07;;;;;;;22.55;10.00;;;;;;;13.78;nan;94671.47;4877432;29;20057;-63
2022/10/07 10:38:59;;;;;;;17.67;10.00;;;;;;;14.05;nan;94675.38;4858576;29;20055;-60
2022/10/07 10:41:45;;;;;;;17.90;10.45;;;;;;;14.14;nan;94664.56;4877287;29;20671;-63
2022/10/07 10:44:55;;;;;;;19.27;10.68;;;;;;;14.12;nan;94670.50;4877490;29;20226;-61
2022/10/07 10:47:34;;;;;;;18.60;9.47;;;;;;;14.25;nan;94661.63;4871749;29;20592;-60
2022/10/07 10:50:20;;;;;;;17.92;10.18;;;;;;;14.32;nan;94648.47;4877901;29;20123;-60
2022/10/07 10:52:55;;;;;;;16.65;10.23;;;;;;;14.37;nan;94661.03;4877807;29;20410;-60
2022/10/07 10:55:40;;;;;;;19.40;10.00;;;;;;;14.49;nan;94651.34;4877787;29;20045;-62
2022/10/07 10:58:26;;;;;;;24.20;12.13;;;;;;;14.16;nan;94654.66;4877076;29;20954;-60
2022/10/07 11:01:05;;;;;;;19.10;10.07;;;;;;;14.24;nan;94647.03;4877563;29;20060;-63
2022/10/07 11:03:38;;;;;;;14.98;9.25;;;;;;;14.53;nan;94638.25;4877808;29;20449;-61
2022/10/07 11:06:10;;;;;;;17.67;9.45;;;;;;;14.47;nan;94631.66;4877103;29;20494;-60
2022/10/07 11:08:37;;;;;;;13.23;8.65;;;;;;;14.70;nan;94631.59;4877280;29;20053;-60
2022/10/07 11:11:06;;;;;;;14.30;9.32;;;;;;;14.41;nan;94634.13;4877347;29;20055;-60
2022/10/07 11:13:47;;;;;;;16.87;8.83;;;;;;;14.37;nan;94628.66;4877706;29;20048;-59
2022/10/07 11:16:26;;;;;;;16.83;9.13;;;;;;;14.43;nan;94626.19;4876946;29;20873;-61
2022/10/07 11:19:07;;;;;;;17.58;9.80;;;;;;;14.62;nan;94626.66;4893351;29;20490;-60
2022/10/07 11:21:51;;;;;;;15.80;9.32;;;;;;;14.80;nan;94615.25;4896046;29;20494;-59
2022/10/07 11:24:41;;;;;;;16.40;9.35;;;;;;;14.78;nan;94616.44;4895260;29;20928;-62
2022/10/07 11:27:17;;;;;;;15.07;8.80;;;;;;;14.94;nan;94612.19;4895094;29;20427;-60
2022/10/07 11:29:53;;;;;;;15.57;8.75;;;;;;;15.51;nan;94610.94;4895616;29;20055;-60
2022/10/07 11:32:28;;;;;;;15.77;8.90;;;;;;;15.79;nan;94611.50;4896482;29;20051;-60
2022/10/07 11:34:57;;;;;;;13.98;8.55;;;;;;;16.40;nan;94598.09;4878660;29;20701;-61
2022/10/07 11:37:53;;;;;;;13.40;8.95;;;;;;;16.16;nan;94604.66;4896281;29;20429;-62
2022/10/07 11:40:22;;;;;;;15.37;8.63;;;;;;;16.58;nan;94598.41;4895241;29;20244;-60
2022/10/07 11:42:56;;;;;;;14.20;8.90;;;;;;;16.32;nan;94592.00;4895272;29;20056;-58
2022/10/07 11:45:30;;;;;;;14.45;8.35;;;;;;;16.43;nan;94586.91;4895977;29;20390;-58
2022/10/07 11:48:06;;;;;;;13.43;7.45;;;;;;;16.44;nan;94579.38;4895640;29;20056;-60
2022/10/07 11:50:44;;;;;;;12.38;7.85;;;;;;;16.40;nan;94575.94;4895966;29;20450;-63
2022/10/07 11:53:19;;;;;;;14.07;7.87;;;;;;;15.98;nan;94576.63;4895232;29;20691;-60
2022/10/07 11:55:54;;;;;;;14.30;8.00;;;;;;;15.49;nan;94571.06;4895233;29;20255;-61
2022/10/07 11:58:38;;;;;;;11.43;7.78;;;;;;;15.90;nan;94567.72;4895837;29;20045;-60
2022/10/07 12:01:29;;;;;;;15.45;7.50;;;;;;;16.23;nan;94556.59;4895399;29;20048;-60
2022/10/07 12:04:21;;;;;;;12.95;7.50;;;;;;;16.64;nan;94551.53;4894977;29;20055;-60
2022/10/07 12:07:25;;;;;;;11.47;7.07;;;;;;;16.33;nan;94551.97;4894985;29;20060;-60
2022/10/07 12:09:52;;;;;;;12.02;6.88;;;;;;;16.82;nan;94548.25;4894795;29;20063;-61